This is the latest recevied weather packets stored in our database for station/object wb2ifs-13. If no packets are shown the sender has not sent any weather packets the latest 10 day(s).
| Time | Temp. | Humidity | Pressure | Rain* | Wind** | Luminosity | Snow |
|---|---|---|---|---|---|---|---|
| 1777898698 | 12.78° C | 59% | 1015.7 hPa | 0 mm | - | - | - |
| 1777897799 | 12.78° C | 62% | 1015.9 hPa | 0 mm | - | - | - |
| 1777896898 | 12.22° C | 62% | 1015.9 hPa | 0 mm | - | - | - |
| 1777896001 | 11.67° C | 64% | 1016 hPa | 0 mm | - | - | - |
| 1777895098 | 10.56° C | 66% | 1016.1 hPa | 0 mm | - | - | - |
| 1777894198 | 10° C | 70% | 1016.2 hPa | 0 mm | - | - | - |
| 1777893299 | 9.44° C | 71% | 1016.2 hPa | 0 mm | - | - | - |
| 1777892401 | 8.89° C | 72% | 1016.3 hPa | 0 mm | - | - | - |
| 1777891500 | 8.89° C | 71% | 1016.1 hPa | 0 mm | - | - | - |
| 1777890599 | 9.44° C | 69% | 1016.2 hPa | 0 mm | - | - | - |
| 1777889700 | 10° C | 67% | 1016.2 hPa | 0 mm | - | - | - |
| 1777888801 | 10.56° C | 67% | 1016.1 hPa | 0 mm | - | - | - |
| 1777887900 | 10.56° C | 67% | 1016.3 hPa | 0 mm | - | - | - |
| 1777886999 | 10.56° C | 68% | 1016.5 hPa | 0 mm | - | - | - |
| 1777886098 | 10.56° C | 68% | 1016.4 hPa | 0 mm | - | - | - |
| 1777885199 | 10.56° C | 68% | 1016.3 hPa | 0 mm | - | - | - |
| 1777884299 | 10.56° C | 69% | 1016.3 hPa | 0 mm | - | - | - |
| 1777883398 | 10.56° C | 69% | 1016.4 hPa | 0 mm | - | - | - |
| 1777882499 | 10° C | 70% | 1016.4 hPa | 0 mm | - | - | - |
| 1777881599 | 10° C | 70% | 1016.3 hPa | 0 mm | - | - | - |
| 1777880698 | 10° C | 70% | 1016.4 hPa | 0 mm | - | - | - |
| 1777879798 | 10° C | 70% | 1016.4 hPa | 0 mm | - | - | - |
| 1777878898 | 10° C | 70% | 1016.4 hPa | 0 mm | - | - | - |
| 1777877999 | 10° C | 69% | 1016.5 hPa | 0 mm | - | - | - |
| 1777877098 | 10° C | 69% | 1016.7 hPa | 0 mm | - | - | - |
* Rain latest hour (hover to see other rain measurements)
** Current wind speed in m/s (hover to see current wind gust speed)